Martha Mills, Kentucky
Current Conditions -  °F | °C
As of 10:55 PM on Tuesday 21 Oct 2014 (Local Time) from KFGX Reporting Station
Broken Clouds Broken Clouds  
Wind Chill: 43°   Ceiling: 3600
Heat Index: 46°   Visibility: 10mi
Dew Point: 41°   Wind: 5mph
Humidity: 85%   Direction: 30°NNE
Pressure: 30.17"   Gusts: NA
Location:  38.436°N, 83.6931°W
Report Text: KFGX 220255Z AUTO 03004KT 10SM SCT020 BKN036 BKN048 08/05 A3017 RMK AO2 T00760052
Loading
Personal Weather Stations






























Interactive Weather Map
Tropical Storm Tracking
New forecast layout! Learn more

10-Day Weather Forecast

Advertisements
Track Severe Weather on mobile